createdAt,value
2018-06-22T00:01:37.207Z,6.27
2018-06-22T00:04:05.831Z,5.83
2018-06-22T00:06:34.564Z,4.53
2018-06-22T00:09:03.262Z,5.70
2018-06-22T00:11:31.744Z,3.67
2018-06-22T00:14:00.208Z,5.07
2018-06-22T00:16:28.652Z,7.17
2018-06-22T00:18:57.155Z,4.87
2018-06-22T00:21:25.669Z,5.60
2018-06-22T00:23:54.165Z,6.17
2018-06-22T00:26:22.716Z,4.30
2018-06-22T00:28:51.709Z,9.10
2018-06-22T00:31:20.239Z,6.20
2018-06-22T00:33:48.783Z,5.40
2018-06-22T00:36:17.316Z,8.27
2018-06-22T00:38:45.752Z,5.73
2018-06-22T00:41:14.155Z,4.13
2018-06-22T00:43:42.609Z,7.30
2018-06-22T00:46:11.226Z,8.00
2018-06-22T00:48:39.768Z,5.97
2018-06-22T00:51:08.157Z,7.53
2018-06-22T00:53:47.734Z,4.30
2018-06-22T00:56:16.231Z,9.10
2018-06-22T00:58:44.776Z,7.53
2018-06-22T01:01:13.290Z,7.53
2018-06-22T01:03:41.834Z,7.60
2018-06-22T01:06:10.544Z,4.23
2018-06-22T01:08:38.998Z,3.97
2018-06-22T01:11:07.614Z,5.87
2018-06-22T01:13:36.094Z,8.17
2018-06-22T01:16:04.934Z,5.60
2018-06-22T01:18:33.471Z,5.10
2018-06-22T01:21:01.916Z,5.30
2018-06-22T01:23:30.314Z,9.07
2018-06-22T01:25:58.754Z,6.67
2018-06-22T01:28:27.703Z,19.50
2018-06-22T01:30:56.177Z,8.57
2018-06-22T01:33:24.696Z,6.30
2018-06-22T01:35:53.759Z,2.53
2018-06-22T01:38:22.221Z,6.13
2018-06-22T01:40:50.720Z,3.97
2018-06-22T01:43:20.128Z,5.97
2018-06-22T01:45:48.637Z,6.90
2018-06-22T01:48:17.160Z,3.97
2018-06-22T01:50:45.660Z,5.80
2018-06-22T01:53:14.148Z,7.13
2018-06-22T01:55:48.972Z,7.17
2018-06-22T01:58:17.540Z,5.37
2018-06-22T02:00:46.014Z,5.57
2018-06-22T02:03:14.480Z,8.13
2018-06-22T02:05:42.938Z,6.70
2018-06-22T02:08:11.460Z,3.53
2018-06-22T02:10:40.003Z,10.33
2018-06-22T02:13:08.514Z,9.40
2018-06-22T02:15:37.046Z,3.63
2018-06-22T02:18:05.678Z,7.23
2018-06-22T02:20:34.387Z,3.23
2018-06-22T02:23:02.865Z,6.40
2018-06-22T02:25:31.365Z,4.40
2018-06-22T02:28:00.422Z,10.23
2018-06-22T02:30:28.885Z,6.10
2018-06-22T02:32:57.414Z,9.10
2018-06-22T02:35:26.648Z,6.73
2018-06-22T02:37:55.109Z,6.87
2018-06-22T02:40:23.542Z,5.20
2018-06-22T02:42:52.004Z,5.07
2018-06-22T02:45:20.503Z,5.53
2018-06-22T02:47:49.725Z,11.40
2018-06-22T02:50:18.111Z,5.73
2018-06-22T02:52:46.659Z,3.93
2018-06-22T02:55:15.089Z,9.07
2018-06-22T02:57:43.855Z,6.77
2018-06-22T03:00:12.368Z,7.90
2018-06-22T03:02:40.929Z,4.80
2018-06-22T03:05:09.824Z,12.60
2018-06-22T03:07:38.380Z,2.70
2018-06-22T03:10:07.279Z,6.67
2018-06-22T03:12:35.871Z,6.60
2018-06-22T03:15:04.758Z,7.30
2018-06-22T03:17:33.189Z,7.57
2018-06-22T03:20:01.626Z,5.30
2018-06-22T03:22:30.154Z,6.77
2018-06-22T03:24:58.633Z,3.73
2018-06-22T03:27:27.058Z,5.77
2018-06-22T03:29:55.668Z,2.77
2018-06-22T03:32:24.093Z,9.47
2018-06-22T03:34:52.594Z,3.00
2018-06-22T03:37:21.395Z,8.33
2018-06-22T03:39:49.824Z,9.10
2018-06-22T03:42:18.274Z,7.67
2018-06-22T03:44:46.747Z,6.30
2018-06-22T03:47:15.210Z,4.50
2018-06-22T03:49:43.648Z,7.87
2018-06-22T03:52:12.289Z,7.70
2018-06-22T03:54:40.729Z,4.43
2018-06-22T03:57:09.214Z,4.03
2018-06-22T03:59:38.101Z,6.00
2018-06-22T04:02:07.363Z,9.83
2018-06-22T04:04:35.837Z,9.23
2018-06-22T04:07:04.591Z,9.97
2018-06-22T04:09:33.129Z,8.77
2018-06-22T04:12:02.931Z,5.73
2018-06-22T04:14:31.479Z,10.97
2018-06-22T04:17:00.014Z,5.23
2018-06-22T04:19:28.555Z,9.23
2018-06-22T04:21:57.050Z,10.93
2018-06-22T04:24:25.523Z,7.47
2018-06-22T04:26:54.510Z,5.17
2018-06-22T04:29:22.963Z,6.07
2018-06-22T04:31:51.470Z,7.30
2018-06-22T04:34:20.651Z,5.83
2018-06-22T04:36:49.181Z,3.83
2018-06-22T04:39:18.816Z,12.10
2018-06-22T04:41:47.410Z,4.17
2018-06-22T04:44:16.839Z,3.53
2018-06-22T04:46:45.414Z,5.07
2018-06-22T04:49:14.596Z,6.93
2018-06-22T04:51:43.103Z,5.17
2018-06-22T04:54:12.096Z,5.00
2018-06-22T04:56:40.661Z,10.40
2018-06-22T04:59:09.166Z,8.03
2018-06-22T05:01:37.760Z,8.13
2018-06-22T05:04:06.401Z,7.93
2018-06-22T05:06:34.858Z,7.33
2018-06-22T05:09:03.565Z,8.73
2018-06-22T05:11:31.989Z,7.27
2018-06-22T05:14:00.639Z,5.90
2018-06-22T05:16:29.077Z,10.00
2018-06-22T05:18:57.833Z,14.23
2018-06-22T05:21:26.259Z,13.53
2018-06-22T05:23:54.771Z,10.50
2018-06-22T05:26:23.722Z,10.60
2018-06-22T05:28:52.218Z,7.23
2018-06-22T05:31:20.700Z,5.30
2018-06-22T05:33:49.297Z,10.27
2018-06-22T05:36:17.722Z,8.20
2018-06-22T05:38:46.169Z,8.40
2018-06-22T05:41:14.897Z,8.20
2018-06-22T05:43:43.381Z,10.83
2018-06-22T05:46:12.460Z,9.10
2018-06-22T05:48:40.919Z,10.23
2018-06-22T05:51:09.349Z,9.30
2018-06-22T05:53:38.026Z,10.87
2018-06-22T05:56:06.500Z,7.67
2018-06-22T05:58:35.072Z,12.40
2018-06-22T06:01:03.579Z,6.20
2018-06-22T06:03:32.180Z,6.53
2018-06-22T06:06:00.750Z,5.33
2018-06-22T06:08:29.206Z,6.47
2018-06-22T06:10:57.770Z,8.53
2018-06-22T06:13:26.252Z,9.73
2018-06-22T06:15:54.750Z,8.60
2018-06-22T06:18:23.212Z,6.80
2018-06-22T06:20:51.709Z,6.97
2018-06-22T06:23:20.159Z,3.73
2018-06-22T06:25:49.280Z,3.90
2018-06-22T06:28:17.692Z,4.53
2018-06-22T06:30:46.214Z,8.27
2018-06-22T06:33:14.668Z,5.93
2018-06-22T06:35:43.146Z,5.20
2018-06-22T06:38:11.602Z,5.77
2018-06-22T06:40:40.096Z,5.97
2018-06-22T06:43:08.613Z,4.97
2018-06-22T06:45:37.121Z,9.10
2018-06-22T06:48:05.648Z,5.50
2018-06-22T06:50:34.204Z,5.40
2018-06-22T06:53:02.743Z,6.73
2018-06-22T06:55:31.499Z,5.13
2018-06-22T06:58:00.045Z,3.73
2018-06-22T07:00:28.574Z,5.83
2018-06-22T07:02:57.093Z,2.60
2018-06-22T07:05:25.593Z,5.00
2018-06-22T07:07:54.423Z,5.50
2018-06-22T07:10:22.896Z,5.60
2018-06-22T07:12:51.322Z,4.50
2018-06-22T07:15:19.849Z,2.67
2018-06-22T07:17:48.376Z,3.57
2018-06-22T07:20:17.000Z,4.53
2018-06-22T07:22:45.622Z,3.37
2018-06-22T07:25:14.139Z,3.87
2018-06-22T07:27:42.640Z,7.97
2018-06-22T07:30:11.199Z,2.60
2018-06-22T07:32:39.834Z,6.87
2018-06-22T07:35:08.933Z,5.63
2018-06-22T07:37:37.494Z,4.77
2018-06-22T07:40:05.995Z,3.57
2018-06-22T07:42:34.505Z,6.53
2018-06-22T07:45:03.066Z,2.43
2018-06-22T07:47:31.668Z,4.60
2018-06-22T07:50:00.106Z,2.60
2018-06-22T07:52:28.690Z,2.77
2018-06-22T07:54:57.173Z,4.57
2018-06-22T07:57:25.712Z,5.70
2018-06-22T07:59:54.182Z,6.07
2018-06-22T08:02:22.630Z,5.03
2018-06-22T08:04:51.240Z,7.60
2018-06-22T08:07:19.724Z,4.50
2018-06-22T08:09:48.508Z,4.63
2018-06-22T08:12:17.026Z,3.70
2018-06-22T08:14:45.637Z,6.10
2018-06-22T08:17:14.087Z,7.07
2018-06-22T08:19:42.579Z,6.53
2018-06-22T08:22:11.107Z,7.83
2018-06-22T08:24:39.642Z,4.43
2018-06-22T08:27:08.129Z,8.07
2018-06-22T08:29:36.823Z,7.73
2018-06-22T08:32:05.398Z,4.63
2018-06-22T08:34:33.888Z,4.33
2018-06-22T08:37:02.712Z,2.00
2018-06-22T08:39:31.195Z,3.80
2018-06-22T08:42:00.535Z,2.97
2018-06-22T08:44:29.154Z,2.43
2018-06-22T08:46:57.561Z,4.00
2018-06-22T08:49:26.127Z,3.20
2018-06-22T08:51:54.706Z,3.13
2018-06-22T08:54:23.358Z,2.03
2018-06-22T08:56:51.888Z,2.53
2018-06-22T08:59:20.557Z,1.60
2018-06-22T09:01:49.098Z,2.77
2018-06-22T09:04:20.611Z,5.07
2018-06-22T09:06:49.173Z,4.43
2018-06-22T09:09:17.722Z,1.80
2018-06-22T09:11:46.328Z,3.17
2018-06-22T09:14:14.900Z,5.30
2018-06-22T09:16:43.442Z,3.40
2018-06-22T09:19:11.908Z,4.80
2018-06-22T09:21:40.734Z,2.47
2018-06-22T09:24:09.254Z,2.80
2018-06-22T09:26:37.708Z,1.60
2018-06-22T09:29:06.328Z,3.27
2018-06-22T09:31:34.910Z,3.40
2018-06-22T09:34:03.620Z,2.40
2018-06-22T09:36:32.395Z,2.97
2018-06-22T09:39:00.873Z,3.43
2018-06-22T09:41:29.478Z,2.27
2018-06-22T09:43:57.904Z,5.63
2018-06-22T09:46:26.365Z,2.10
2018-06-22T09:48:54.919Z,2.10
2018-06-22T09:51:23.412Z,5.23
2018-06-22T09:53:51.942Z,4.30
2018-06-22T09:56:20.448Z,2.33
2018-06-22T09:58:48.928Z,3.40
2018-06-22T10:01:17.538Z,2.77
2018-06-22T10:03:46.020Z,2.97
2018-06-22T10:06:14.604Z,3.63
2018-06-22T10:08:43.255Z,2.77
2018-06-22T10:11:11.835Z,3.30
2018-06-22T10:13:40.404Z,4.10
2018-06-22T10:16:09.017Z,2.27
2018-06-22T10:18:37.624Z,3.40
2018-06-22T10:21:06.147Z,3.27
2018-06-22T10:23:34.649Z,5.33
2018-06-22T10:26:03.230Z,4.47
2018-06-22T10:28:31.800Z,2.33
2018-06-22T10:31:00.291Z,2.90
2018-06-22T10:33:28.849Z,3.07
2018-06-22T10:35:57.312Z,6.50
2018-06-22T10:38:25.761Z,1.87
2018-06-22T10:40:54.432Z,3.57
2018-06-22T10:43:22.938Z,3.00
2018-06-22T10:45:52.053Z,4.70
2018-06-22T10:48:20.585Z,2.80
2018-06-22T10:50:49.061Z,4.07
2018-06-22T10:53:17.776Z,3.87
2018-06-22T10:55:46.199Z,7.10
2018-06-22T10:58:14.686Z,4.03
2018-06-22T11:00:43.200Z,2.80
2018-06-22T11:03:11.785Z,2.70
2018-06-22T11:05:40.322Z,5.33
2018-06-22T11:08:08.776Z,3.67
2018-06-22T11:10:37.414Z,6.00
2018-06-22T11:13:05.995Z,3.93
2018-06-22T11:15:34.665Z,2.40
2018-06-22T11:18:03.160Z,4.20
2018-06-22T11:20:31.644Z,2.87
2018-06-22T11:23:00.205Z,3.43
2018-06-22T11:25:28.706Z,1.47
2018-06-22T11:27:57.212Z,5.10
2018-06-22T11:30:25.896Z,4.40
2018-06-22T11:32:54.397Z,3.60
2018-06-22T11:35:23.061Z,4.00
2018-06-22T11:37:51.656Z,5.93
2018-06-22T11:40:20.282Z,3.07
2018-06-22T11:42:48.779Z,4.90
2018-06-22T11:45:17.273Z,4.70
2018-06-22T11:47:46.829Z,2.57
2018-06-22T11:50:15.392Z,3.60
2018-06-22T11:52:43.881Z,3.57
2018-06-22T11:55:12.259Z,6.80
2018-06-22T11:57:40.802Z,5.53
2018-06-22T12:00:09.394Z,3.07
2018-06-22T12:02:37.944Z,4.67
2018-06-22T12:05:06.483Z,6.47
2018-06-22T12:07:34.984Z,3.33
2018-06-22T12:10:03.700Z,5.33
2018-06-22T12:12:32.266Z,6.83
2018-06-22T12:15:00.896Z,3.50
2018-06-22T12:17:29.458Z,6.10
2018-06-22T12:19:58.068Z,2.70
2018-06-22T12:22:27.287Z,4.73
2018-06-22T12:24:55.809Z,4.30
2018-06-22T12:27:24.460Z,4.17
2018-06-22T12:29:52.991Z,4.40
2018-06-22T12:32:21.518Z,5.80
2018-06-22T12:34:50.600Z,2.37
2018-06-22T12:37:19.111Z,6.17
2018-06-22T12:39:47.554Z,2.90
2018-06-22T12:42:16.174Z,4.87
2018-06-22T12:44:45.000Z,2.03
2018-06-22T12:47:13.632Z,4.47
2018-06-22T12:49:42.856Z,6.20
2018-06-22T12:52:11.342Z,3.33
2018-06-22T12:54:39.896Z,4.70
2018-06-22T12:57:08.418Z,2.03
2018-06-22T12:59:37.177Z,3.63
2018-06-22T13:02:05.829Z,5.50
2018-06-22T13:04:34.336Z,4.47
2018-06-22T13:07:02.850Z,2.80
2018-06-22T13:09:31.439Z,2.97
2018-06-22T13:12:00.629Z,5.13
2018-06-22T13:14:29.189Z,3.57
2018-06-22T13:16:58.181Z,3.87
2018-06-22T13:19:26.683Z,4.87
2018-06-22T13:21:56.106Z,5.20
2018-06-22T13:24:25.700Z,2.67
2018-06-22T13:26:54.569Z,5.43
2018-06-22T13:29:23.459Z,2.93
2018-06-22T13:31:51.910Z,7.87
2018-06-22T13:34:20.435Z,3.00
2018-06-22T13:36:49.147Z,4.37
2018-06-22T13:39:19.073Z,3.53
2018-06-22T13:41:48.634Z,2.93
2018-06-22T13:44:17.863Z,4.90
2018-06-22T13:46:46.505Z,4.80
2018-06-22T13:49:14.982Z,6.33
2018-06-22T13:51:43.614Z,4.87
2018-06-22T13:54:12.149Z,3.10
2018-06-22T13:56:41.050Z,3.27
2018-06-22T13:59:09.614Z,4.17
2018-06-22T14:01:38.672Z,4.67
2018-06-22T14:05:10.254Z,6.63
2018-06-22T14:07:38.770Z,5.73
2018-06-22T14:10:07.364Z,3.73
2018-06-22T14:12:35.870Z,4.00
2018-06-22T14:15:04.438Z,6.17
2018-06-22T14:17:33.086Z,5.87
2018-06-22T14:20:01.679Z,5.63
2018-06-22T14:22:30.277Z,4.30
2018-06-22T14:24:58.747Z,6.30
2018-06-22T14:27:28.023Z,5.30
2018-06-22T14:29:56.556Z,4.23
2018-06-22T14:32:25.128Z,3.80
2018-06-22T14:34:53.826Z,3.40
2018-06-22T14:37:22.357Z,4.03
2018-06-22T14:39:51.000Z,5.63
2018-06-22T14:42:19.489Z,5.43
2018-06-22T14:44:47.985Z,2.80
2018-06-22T14:47:16.654Z,3.53
2018-06-22T14:49:46.836Z,2.80
2018-06-22T14:52:15.459Z,5.60
2018-06-22T14:54:49.316Z,3.17
2018-06-22T14:57:23.340Z,4.43
2018-06-22T14:59:56.985Z,3.33
2018-06-22T15:02:30.932Z,1.80
2018-06-22T15:05:04.747Z,2.97
2018-06-22T15:07:39.620Z,4.77
2018-06-22T15:10:09.581Z,2.73
2018-06-22T15:12:43.777Z,2.47
2018-06-22T15:15:15.814Z,4.03
2018-06-22T15:17:52.824Z,7.13
2018-06-22T15:20:29.265Z,6.50
2018-06-22T15:23:00.962Z,3.80
2018-06-22T15:25:32.760Z,3.80
2018-06-22T15:28:03.799Z,3.90
2018-06-22T15:30:33.975Z,4.03
2018-06-22T15:33:06.232Z,6.40
2018-06-22T15:35:41.834Z,2.77
2018-06-22T15:38:16.468Z,4.40
2018-06-22T15:40:51.533Z,3.93
2018-06-22T15:43:26.289Z,3.10
2018-06-22T15:46:01.201Z,5.50
2018-06-22T15:48:35.740Z,1.90
2018-06-22T15:51:09.557Z,4.00
2018-06-22T15:53:43.200Z,5.63
2018-06-22T15:56:11.772Z,1.93
2018-06-22T15:58:40.421Z,4.93
2018-06-22T16:01:09.010Z,2.63
2018-06-22T16:03:42.735Z,3.47
2018-06-22T16:06:11.221Z,4.73
2018-06-22T16:08:39.808Z,2.27
2018-06-22T16:11:08.530Z,5.20
2018-06-22T16:13:37.217Z,5.83
2018-06-22T16:16:11.085Z,9.60
2018-06-22T16:18:44.822Z,3.67
2018-06-22T16:21:18.641Z,10.63
2018-06-22T16:23:52.629Z,4.53
2018-06-22T16:26:26.452Z,2.10
2018-06-22T16:28:55.002Z,3.40
2018-06-22T16:31:23.510Z,4.57
2018-06-22T16:33:55.950Z,5.10
2018-06-22T16:36:25.493Z,2.77
2018-06-22T16:38:54.367Z,3.53
2018-06-22T16:41:23.026Z,7.27
2018-06-22T16:43:51.554Z,4.93
2018-06-22T16:46:20.135Z,3.20
2018-06-22T16:48:48.657Z,2.10
2018-06-22T16:51:17.249Z,2.77
2018-06-22T16:53:45.749Z,3.13
2018-06-22T16:56:14.285Z,3.90
2018-06-22T16:58:42.738Z,3.73
2018-06-22T17:01:12.152Z,6.63
2018-06-22T17:03:40.668Z,2.10
2018-06-22T17:06:09.296Z,2.30
2018-06-22T17:08:42.857Z,3.13
2018-06-22T17:11:16.405Z,3.23
2018-06-22T17:13:50.073Z,3.10
2018-06-22T17:16:24.128Z,3.93
2018-06-22T17:18:55.403Z,3.50
2018-06-22T17:21:24.011Z,2.27
2018-06-22T17:23:52.847Z,2.90
2018-06-22T17:26:21.282Z,3.90
2018-06-22T17:28:49.847Z,2.80
2018-06-22T17:31:18.474Z,2.50
2018-06-22T17:33:47.078Z,2.20
2018-06-22T17:36:15.739Z,3.87
2018-06-22T17:38:44.316Z,5.63
2018-06-22T17:41:13.410Z,4.73
2018-06-22T17:43:41.927Z,3.60
2018-06-22T17:46:10.762Z,1.80
2018-06-22T17:48:39.278Z,14.00
2018-06-22T17:51:07.756Z,5.33
2018-06-22T17:53:36.406Z,6.57
2018-06-22T17:56:05.030Z,3.30
2018-06-22T17:58:34.539Z,3.17
2018-06-22T18:01:08.360Z,3.20
2018-06-22T18:03:42.167Z,5.33
2018-06-22T18:06:16.056Z,3.23
2018-06-22T18:08:46.860Z,1.90
2018-06-22T18:11:20.657Z,1.80
2018-06-22T18:13:49.151Z,7.10
2018-06-22T18:16:17.616Z,4.47
2018-06-22T18:18:46.192Z,3.50
2018-06-22T18:21:14.682Z,3.07
2018-06-22T18:23:43.565Z,4.87
2018-06-22T18:26:12.087Z,3.53
2018-06-22T18:28:40.575Z,5.60
2018-06-22T18:31:09.297Z,5.23
2018-06-22T18:33:37.807Z,6.47
2018-06-22T18:36:06.495Z,4.87
2018-06-22T18:38:35.040Z,2.63
2018-06-22T18:41:03.662Z,8.27
2018-06-22T18:43:37.442Z,3.80
2018-06-22T18:46:05.989Z,2.47
2018-06-22T18:48:34.494Z,3.87
2018-06-22T18:51:03.204Z,3.57
2018-06-22T18:53:37.116Z,4.83
2018-06-22T18:57:09.391Z,2.93
2018-06-22T18:59:41.044Z,4.33
2018-06-22T19:02:14.778Z,3.90
2018-06-22T19:04:43.458Z,2.37
2018-06-22T19:07:12.070Z,2.60
2018-06-22T19:09:40.647Z,2.47
2018-06-22T19:12:09.238Z,3.03
2018-06-22T19:14:37.708Z,3.63
2018-06-22T19:17:06.607Z,3.87
2018-06-22T19:19:35.194Z,3.67
2018-06-22T19:22:03.698Z,6.80
2018-06-22T19:24:32.368Z,6.73
2018-06-22T19:27:00.873Z,3.30
2018-06-22T19:29:29.587Z,3.63
2018-06-22T19:31:58.190Z,7.10
2018-06-22T19:34:31.994Z,3.10
2018-06-22T19:37:00.619Z,3.80
2018-06-22T19:39:29.193Z,4.63
2018-06-22T19:44:57.606Z,5.40
2018-06-22T19:47:31.352Z,4.70
2018-06-22T19:50:05.093Z,6.97
2018-06-22T19:52:39.075Z,4.30
2018-06-22T19:55:07.743Z,4.20
2018-06-22T19:57:36.376Z,7.60
2018-06-22T20:00:09.137Z,3.57
2018-06-22T20:02:37.688Z,3.17
2018-06-22T20:05:06.836Z,3.57
2018-06-22T20:07:35.491Z,6.33
2018-06-22T20:10:04.852Z,7.27
2018-06-22T20:12:33.385Z,7.53
2018-06-22T20:15:01.851Z,6.70
2018-06-22T20:17:30.460Z,9.63
2018-06-22T20:19:59.001Z,5.87
2018-06-22T20:22:27.530Z,8.70
2018-06-22T20:25:01.504Z,7.97
2018-06-22T20:27:30.072Z,8.27
2018-06-22T20:29:58.534Z,10.97
2018-06-22T20:32:27.093Z,5.10
2018-06-22T20:35:00.754Z,6.00
2018-06-22T20:37:34.463Z,5.17
2018-06-22T20:40:08.365Z,5.63
2018-06-22T20:42:42.159Z,8.10
2018-06-22T20:45:15.993Z,15.77
2018-06-22T20:47:49.894Z,11.30
2018-06-22T20:50:23.717Z,10.17
2018-06-22T20:52:52.231Z,12.70
2018-06-22T20:55:20.776Z,9.10
2018-06-22T20:57:49.281Z,8.20
2018-06-22T21:00:18.052Z,9.87
2018-06-22T21:02:46.595Z,8.00
2018-06-22T21:05:15.082Z,8.30
2018-06-22T21:07:43.575Z,15.47
2018-06-22T21:10:12.741Z,20.20
2018-06-22T21:12:41.565Z,18.13
2018-06-22T21:15:10.718Z,8.20
2018-06-22T21:17:39.242Z,9.40
2018-06-22T21:20:07.734Z,8.50
2018-06-22T21:22:36.287Z,9.90
2018-06-22T21:25:04.864Z,8.97
2018-06-22T21:27:38.533Z,7.37
2018-06-22T21:30:13.907Z,5.60
2018-06-22T21:32:54.416Z,8.87
2018-06-22T21:35:28.206Z,9.20
2018-06-22T21:38:01.906Z,8.07
2018-06-22T21:40:30.472Z,7.63
2018-06-22T21:42:59.021Z,9.03
2018-06-22T21:45:27.627Z,8.03
2018-06-22T21:47:56.283Z,8.17
2018-06-22T21:50:24.872Z,6.30
2018-06-22T21:52:53.371Z,11.40
2018-06-22T21:55:21.911Z,7.20
2018-06-22T21:57:50.508Z,7.77
2018-06-22T22:00:30.719Z,5.93
2018-06-22T22:03:00.367Z,6.47
2018-06-22T22:05:29.600Z,5.70
2018-06-22T22:07:58.737Z,7.20
2018-06-22T22:10:32.618Z,5.20
2018-06-22T22:13:01.233Z,10.33
2018-06-22T22:15:30.090Z,9.53
2018-06-22T22:17:59.332Z,6.13
2018-06-22T22:20:28.005Z,6.73
2018-06-22T22:22:56.581Z,7.37
2018-06-22T22:25:25.134Z,4.63
2018-06-22T22:27:59.045Z,11.30
2018-06-22T22:30:29.182Z,4.90
2018-06-22T22:32:57.723Z,6.20
2018-06-22T22:35:26.685Z,9.93
2018-06-22T22:37:55.230Z,5.50
2018-06-22T22:40:24.393Z,7.70
2018-06-22T22:42:53.548Z,5.23
2018-06-22T22:45:22.154Z,9.90
2018-06-22T22:47:50.778Z,10.70
2018-06-22T22:50:19.492Z,7.70
2018-06-22T22:52:48.155Z,6.60
2018-06-22T22:55:17.390Z,8.97
2018-06-22T22:57:49.655Z,5.20
2018-06-22T23:00:18.306Z,9.30
2018-06-22T23:02:46.982Z,8.60
2018-06-22T23:05:15.480Z,6.93
2018-06-22T23:07:44.185Z,8.53
2018-06-22T23:10:12.689Z,5.60
2018-06-22T23:12:41.555Z,6.00
2018-06-22T23:15:11.432Z,4.10
2018-06-22T23:17:40.063Z,9.43
2018-06-22T23:20:09.238Z,11.83
2018-06-22T23:22:48.854Z,9.03
2018-06-22T23:25:17.314Z,6.27
2018-06-22T23:27:45.909Z,10.50
2018-06-22T23:30:14.505Z,21.13
2018-06-22T23:32:43.139Z,16.30
2018-06-22T23:35:12.351Z,10.30
2018-06-22T23:37:40.926Z,10.67
2018-06-22T23:40:10.242Z,12.33
2018-06-22T23:42:38.925Z,26.53
2018-06-22T23:45:07.481Z,29.80
2018-06-22T23:47:36.008Z,26.87
2018-06-22T23:50:04.531Z,25.63
2018-06-22T23:52:33.009Z,26.97
2018-06-22T23:55:01.608Z,30.50
2018-06-22T23:57:30.052Z,17.90
2018-06-22T23:59:59.149Z,15.90
